Time;durP1;ratioP1;P1;durP2;ratioP2;P2;SDS_P1;SDS_P2;PMS_P1;PMS_P2;Temp;Humidity;BMP_temperature;BMP_pressure;BME280_temperature;BME280_humidity;BME280_pressure;Samples;Min_cycle;Max_cycle;Signal;HPM_P1;HPM_P2
2022/10/21 00:02:06;;;;;;;1.05;0.95;;;;;;;5.90;76.97;97438.09;5113097;28;20086;-62
2022/10/21 00:04:34;;;;;;;1.23;1.13;;;;;;;5.91;76.76;97439.84;5113176;28;20412;-64
2022/10/21 00:07:01;;;;;;;2.00;1.33;;;;;;;5.92;75.65;97441.56;5113090;28;20105;-62
2022/10/21 00:09:28;;;;;;;4.43;1.10;;;;;;;5.94;73.79;97441.56;5113264;28;20104;-66
2022/10/21 00:11:55;;;;;;;3.35;0.93;;;;;;;5.91;73.56;97441.56;5113169;28;20051;-66
2022/10/21 00:14:23;;;;;;;1.20;1.10;;;;;;;5.91;73.13;97442.44;5112978;28;20075;-66
2022/10/21 00:16:50;;;;;;;4.35;1.30;;;;;;;5.85;73.77;97439.00;5113018;28;20552;-64
2022/10/21 00:19:18;;;;;;;3.90;1.17;;;;;;;5.81;74.45;97435.56;5112634;28;20408;-65
2022/10/21 00:21:45;;;;;;;7.32;1.40;;;;;;;5.72;74.31;97436.44;5112951;28;20048;-64
2022/10/21 00:24:13;;;;;;;0.98;0.90;;;;;;;5.68;73.92;97430.44;5113190;28;20082;-65
2022/10/21 00:26:40;;;;;;;1.00;0.90;;;;;;;5.63;73.47;97428.72;5112875;28;20052;-62
2022/10/21 00:29:07;;;;;;;1.17;1.00;;;;;;;5.60;74.16;97431.31;5112923;28;20055;-66
2022/10/21 00:31:35;;;;;;;0.80;0.75;;;;;;;5.54;74.44;97427.03;5112812;28;20511;-63
2022/10/21 00:34:07;;;;;;;1.25;0.93;;;;;;;5.53;72.94;97426.16;5113986;28;20048;-62
2022/10/21 00:36:36;;;;;;;7.00;0.90;;;;;;;5.51;72.89;97421.84;5116109;28;20044;-67
2022/10/21 00:39:03;;;;;;;0.90;0.90;;;;;;;5.49;72.76;97414.06;5116192;28;20054;-63
2022/10/21 00:41:30;;;;;;;2.05;1.05;;;;;;;5.42;72.93;97412.38;5116403;28;20071;-62
2022/10/21 00:44:01;;;;;;;3.38;1.08;;;;;;;5.42;73.05;97414.97;5116501;28;20090;-67
2022/10/21 00:46:36;;;;;;;2.33;1.10;;;;;;;5.40;73.20;97409.78;5116497;28;20096;-65
2022/10/21 00:49:08;;;;;;;1.13;1.05;;;;;;;5.41;73.07;97410.63;5116153;28;20405;-65
2022/10/21 00:51:37;;;;;;;2.67;1.17;;;;;;;5.34;73.49;97408.91;5116559;28;20077;-67
2022/10/21 00:54:06;;;;;;;0.87;0.80;;;;;;;5.36;73.60;97412.38;5116246;28;20511;-63
2022/10/21 00:56:36;;;;;;;0.95;0.95;;;;;;;5.25;73.57;97410.69;5116200;28;20059;-67
2022/10/21 00:59:06;;;;;;;2.20;1.10;;;;;;;5.18;73.76;97411.56;5116005;27;20055;-64
2022/10/21 01:01:34;;;;;;;1.30;1.00;;;;;;;5.16;73.75;97408.09;5116129;28;20089;-66
2022/10/21 01:04:05;;;;;;;2.35;1.20;;;;;;;5.11;73.76;97402.91;5115890;28;20044;-63
2022/10/21 01:06:32;;;;;;;1.23;0.90;;;;;;;5.13;73.60;97402.91;5115826;28;20500;-62
2022/10/21 01:09:01;;;;;;;1.10;1.00;;;;;;;5.12;73.25;97407.22;5116014;28;20129;-60
2022/10/21 01:11:33;;;;;;;5.15;1.45;;;;;;;5.10;73.23;97395.13;5115883;28;20130;-70
2022/10/21 01:14:32;;;;;;;4.38;2.15;;;;;;;5.07;73.52;97398.63;5115835;28;20051;-63
2022/10/21 01:17:13;;;;;;;9.30;3.53;;;;;;;5.06;73.14;97402.94;5115699;28;20553;-63
2022/10/21 01:20:18;;;;;;;6.93;2.47;;;;;;;5.09;72.63;97398.59;5115460;27;20055;-63
2022/10/21 01:23:10;;;;;;;4.57;1.88;;;;;;;5.04;72.64;97406.41;5115712;28;20044;-66
2022/10/21 01:26:12;;;;;;;4.00;1.90;;;;;;;5.03;72.85;97405.53;5074542;28;20061;-64
2022/10/21 01:28:55;;;;;;;3.22;1.65;;;;;;;5.02;72.71;97397.75;5111502;28;20048;-64
2022/10/21 01:31:30;;;;;;;4.13;1.23;;;;;;;5.00;73.02;97395.16;5115623;27;20043;-65
2022/10/21 01:34:07;;;;;;;1.45;1.20;;;;;;;4.96;72.88;97403.81;5115366;28;20047;-61
2022/10/21 01:36:41;;;;;;;2.28;1.52;;;;;;;4.84;73.68;97398.66;5115478;27;20105;-62
2022/10/21 01:39:18;;;;;;;1.65;1.08;;;;;;;4.83;73.27;97402.97;5115264;28;20066;-67
2022/10/21 01:41:52;;;;;;;6.85;1.45;;;;;;;4.76;72.85;97399.50;5115396;28;20044;-64
2022/10/21 01:44:26;;;;;;;1.20;1.08;;;;;;;4.73;72.75;97409.03;5115080;28;20087;-63
2022/10/21 01:46:58;;;;;;;1.15;0.90;;;;;;;4.66;73.64;97405.56;5115165;28;20048;-65
2022/10/21 01:49:30;;;;;;;1.05;0.88;;;;;;;4.58;74.35;97412.50;5115355;28;20527;-68
2022/10/21 01:51:59;;;;;;;1.42;1.27;;;;;;;4.51;74.57;97411.63;5114992;28;20051;-63
2022/10/21 01:54:31;;;;;;;3.85;1.15;;;;;;;4.46;74.00;97408.19;5115016;28;20071;-66
2022/10/21 01:56:59;;;;;;;1.92;1.08;;;;;;;4.42;74.35;97415.06;5115121;28;20047;-63
2022/10/21 01:59:29;;;;;;;1.20;1.10;;;;;;;4.40;74.09;97416.81;5114773;28;20051;-65
2022/10/21 02:02:02;;;;;;;3.72;1.13;;;;;;;4.36;73.88;97417.69;5114938;28;20051;-62
2022/10/21 02:04:33;;;;;;;1.83;1.10;;;;;;;4.37;73.86;97415.06;5114918;28;20048;-66
2022/10/21 02:07:00;;;;;;;1.48;0.90;;;;;;;4.40;73.90;97412.47;5114722;28;20452;-62
2022/10/21 02:09:27;;;;;;;2.70;1.20;;;;;;;4.35;74.13;97410.75;5114672;28;20051;-62
2022/10/21 02:11:59;;;;;;;0.88;0.88;;;;;;;4.36;73.46;97421.13;5114642;28;20101;-63
2022/10/21 02:14:32;;;;;;;1.02;0.90;;;;;;;4.32;73.95;97429.75;5114477;28;20131;-63
2022/10/21 02:17:01;;;;;;;1.45;1.00;;;;;;;4.32;73.83;97421.97;5114565;28;20047;-66
2022/10/21 02:19:28;;;;;;;2.17;1.02;;;;;;;4.26;74.16;97424.56;5114467;28;20063;-61
2022/10/21 02:22:00;;;;;;;1.00;0.75;;;;;;;4.26;73.79;97427.16;5114484;28;20047;-62
2022/10/21 02:24:33;;;;;;;1.45;1.00;;;;;;;4.22;74.24;97440.97;5114449;28;20105;-66
2022/10/21 02:27:01;;;;;;;4.63;1.48;;;;;;;4.17;74.39;97438.34;5114440;28;20071;-68
2022/10/21 02:29:33;;;;;;;3.70;1.30;;;;;;;4.13;74.53;97440.06;5114543;28;20070;-68
2022/10/21 02:32:16;;;;;;;1.15;1.05;;;;;;;4.13;74.18;97444.41;5114234;28;20051;-65
2022/10/21 02:34:55;;;;;;;1.38;1.00;;;;;;;4.09;73.64;97440.94;5114278;28;20043;-66
2022/10/21 02:37:30;;;;;;;1.13;0.80;;;;;;;4.09;73.84;97440.94;5114059;28;20587;-66
2022/10/21 02:40:05;;;;;;;1.15;1.00;;;;;;;4.04;74.04;97442.66;5114005;28;20051;-66
2022/10/21 02:42:35;;;;;;;0.85;0.85;;;;;;;3.97;73.88;97446.94;5114157;28;20400;-62
2022/10/21 02:45:04;;;;;;;2.03;1.02;;;;;;;3.95;74.20;97442.63;5113980;28;20047;-64
2022/10/21 02:47:36;;;;;;;0.88;0.85;;;;;;;3.98;74.07;97453.88;5114012;28;20051;-67
2022/10/21 02:50:03;;;;;;;1.95;1.23;;;;;;;3.94;74.50;97451.25;5114120;28;20722;-63
2022/10/21 02:52:30;;;;;;;1.95;1.00;;;;;;;3.86;75.64;97449.53;5113919;28;20454;-62
2022/10/21 02:54:57;;;;;;;1.08;0.98;;;;;;;3.85;75.66;97450.34;5113945;28;20553;-64
2022/10/21 02:57:24;;;;;;;1.15;1.00;;;;;;;3.89;74.19;97448.66;5113382;28;20043;-62
2022/10/21 02:59:51;;;;;;;0.90;0.90;;;;;;;3.87;73.78;97446.06;5113715;28;20516;-66
2022/10/21 03:02:18;;;;;;;0.98;0.90;;;;;;;3.88;74.79;97450.38;5114071;28;20047;-65
2022/10/21 03:04:47;;;;;;;0.95;0.90;;;;;;;3.87;74.32;97452.94;5113888;28;20100;-64
2022/10/21 03:07:14;;;;;;;1.65;1.00;;;;;;;3.82;75.20;97449.50;5113736;28;20130;-63
2022/10/21 03:09:41;;;;;;;3.75;1.58;;;;;;;3.71;75.68;97446.84;5113774;28;20040;-61
2022/10/21 03:12:08;;;;;;;1.20;1.05;;;;;;;3.73;76.25;97453.75;5113765;28;20043;-60
2022/10/21 03:14:36;;;;;;;1.00;0.90;;;;;;;3.76;75.74;97455.50;5113620;28;20048;-66
2022/10/21 03:17:03;;;;;;;2.13;1.17;;;;;;;3.77;75.67;97446.88;5113556;28;20135;-61
2022/10/21 03:19:31;;;;;;;3.90;1.45;;;;;;;3.80;74.37;97462.44;5113378;28;20082;-64
2022/10/21 03:21:59;;;;;;;2.20;1.02;;;;;;;3.78;74.04;97454.66;5113376;28;20047;-61
2022/10/21 03:24:26;;;;;;;1.00;0.93;;;;;;;3.80;74.14;97462.44;5113484;28;20044;-68
2022/10/21 03:26:53;;;;;;;1.35;1.10;;;;;;;3.81;74.06;97465.88;5113471;28;20524;-67
2022/10/21 03:29:20;;;;;;;1.42;1.05;;;;;;;3.73;74.47;97468.44;5113469;28;20040;-67
2022/10/21 03:31:48;;;;;;;1.67;0.95;;;;;;;3.73;74.86;97468.44;5113479;28;20111;-63
2022/10/21 03:34:15;;;;;;;1.02;0.90;;;;;;;3.75;74.91;97466.72;5113417;28;20075;-69
2022/10/21 03:36:42;;;;;;;1.52;1.02;;;;;;;3.74;74.87;97468.44;5113380;28;20047;-63
2022/10/21 03:39:12;;;;;;;6.15;1.45;;;;;;;3.72;73.96;97469.28;5113419;28;20051;-62
2022/10/21 03:41:40;;;;;;;1.03;0.97;;;;;;;3.67;74.47;97477.03;5113391;28;20558;-67
2022/10/21 03:44:07;;;;;;;1.90;1.05;;;;;;;3.66;74.36;97470.13;5113330;28;20131;-66
2022/10/21 03:46:34;;;;;;;1.58;0.88;;;;;;;3.61;74.48;97472.69;5113230;28;20047;-62
2022/10/21 03:49:02;;;;;;;2.03;1.20;;;;;;;3.62;74.02;97470.97;5113224;28;20054;-66
2022/10/21 03:51:29;;;;;;;1.30;0.98;;;;;;;3.61;73.75;97474.44;5113248;28;20047;-61
2022/10/21 03:53:57;;;;;;;3.22;0.80;;;;;;;3.61;73.78;97464.94;5113284;28;20044;-63
2022/10/21 03:56:25;;;;;;;1.83;1.20;;;;;;;3.55;74.10;97472.66;5113201;28;20097;-65
2022/10/21 03:58:53;;;;;;;1.75;1.48;;;;;;;3.54;74.00;97466.63;5113267;28;20097;-66
2022/10/21 04:01:20;;;;;;;2.40;1.40;;;;;;;3.53;73.52;97475.22;5113123;28;20134;-63
2022/10/21 04:03:47;;;;;;;1.13;0.98;;;;;;;3.46;74.14;97470.88;5113221;28;20047;-67
2022/10/21 04:06:15;;;;;;;4.85;1.02;;;;;;;3.34;75.30;97466.50;5113177;28;20101;-66
2022/10/21 04:08:42;;;;;;;1.58;1.30;;;;;;;3.25;75.91;97464.75;5114031;28;20047;-61
2022/10/21 04:11:10;;;;;;;1.27;0.98;;;;;;;3.18;76.08;97465.56;5117056;28;20055;-69
2022/10/21 04:13:38;;;;;;;1.83;1.17;;;;;;;3.13;76.89;97462.09;5117062;28;20039;-64
2022/10/21 04:16:10;;;;;;;1.30;1.02;;;;;;;3.12;77.13;97465.50;5116891;28;20044;-64
2022/10/21 04:18:37;;;;;;;2.70;1.15;;;;;;;3.17;76.50;97461.25;5116837;28;20086;-63
2022/10/21 04:21:07;;;;;;;2.22;1.10;;;;;;;3.22;75.82;97469.03;5116533;28;20087;-64
2022/10/21 04:23:35;;;;;;;1.50;1.25;;;;;;;3.20;76.32;97469.03;5116771;28;20078;-63
2022/10/21 04:26:02;;;;;;;5.65;1.67;;;;;;;3.13;77.09;97475.03;5116970;28;20126;-64
2022/10/21 04:28:30;;;;;;;2.40;1.23;;;;;;;3.10;77.44;97472.41;5116667;27;20043;-62
2022/10/21 04:30:59;;;;;;;1.35;1.08;;;;;;;3.11;77.60;97469.84;5116829;28;20047;-62
2022/10/21 04:33:27;;;;;;;2.00;1.23;;;;;;;3.16;76.40;97475.88;5116614;28;20047;-63
2022/10/21 04:35:54;;;;;;;0.98;0.88;;;;;;;3.19;76.17;97467.28;5116567;28;20047;-67
2022/10/21 04:38:22;;;;;;;5.05;1.35;;;;;;;3.22;75.88;97471.63;5116524;28;20451;-66
2022/10/21 04:40:56;;;;;;;1.40;0.93;;;;;;;3.16;76.37;97465.53;5116510;28;20130;-65
2022/10/21 04:43:24;;;;;;;0.85;0.80;;;;;;;3.16;76.77;97475.88;5116244;28;20043;-64
2022/10/21 04:45:51;;;;;;;1.45;1.15;;;;;;;3.22;76.74;97474.22;5116383;28;20060;-65
2022/10/21 04:48:20;;;;;;;1.90;1.10;;;;;;;3.28;76.22;97469.94;5116366;28;20047;-65
2022/10/21 04:50:49;;;;;;;4.15;1.45;;;;;;;3.32;76.37;97476.00;5116296;28;20050;-65
2022/10/21 04:53:17;;;;;;;1.55;1.30;;;;;;;3.34;76.05;97473.44;5116247;28;20047;-68
2022/10/21 04:55:44;;;;;;;1.77;1.10;;;;;;;3.29;75.79;97466.47;5116231;28;20052;-68
2022/10/21 04:58:12;;;;;;;2.63;1.20;;;;;;;3.36;76.97;97476.88;5116091;28;20105;-63
2022/10/21 05:00:39;;;;;;;6.00;1.33;;;;;;;3.43;76.97;97476.03;5116021;28;20122;-66
2022/10/21 05:03:06;;;;;;;2.13;1.52;;;;;;;3.54;76.34;97482.16;5116412;28;20440;-64
2022/10/21 05:05:34;;;;;;;2.45;1.48;;;;;;;3.65;76.25;97482.19;5116155;28;20071;-64
2022/10/21 05:08:02;;;;;;;1.10;1.05;;;;;;;3.71;76.08;97483.97;5115843;28;20054;-65
2022/10/21 05:10:30;;;;;;;3.65;1.25;;;;;;;3.82;76.01;97478.81;5115821;28;20051;-62
2022/10/21 05:12:58;;;;;;;2.58;1.23;;;;;;;3.88;75.62;97484.03;5115766;28;20082;-60
2022/10/21 05:15:26;;;;;;;5.25;1.25;;;;;;;3.96;75.93;97476.28;5115638;28;20500;-69
2022/10/21 05:17:54;;;;;;;1.08;0.98;;;;;;;4.14;75.75;97483.25;5115824;28;20451;-65
2022/10/21 05:20:21;;;;;;;1.85;1.67;;;;;;;4.77;76.20;97489.41;5115029;28;20104;-62
2022/10/21 05:22:50;;;;;;;1.63;1.52;;;;;;;5.72;72.25;97485.78;5115607;28;20047;-66
2022/10/21 05:25:18;;;;;;;1.20;1.10;;;;;;;6.62;69.76;97494.06;5115568;28;20043;-62
2022/10/21 05:27:45;;;;;;;1.23;1.13;;;;;;;7.67;66.95;97484.41;5115504;27;20412;-66
2022/10/21 05:30:13;;;;;;;2.08;1.10;;;;;;;8.81;63.17;97482.06;5115453;28;20131;-64
2022/10/21 05:32:41;;;;;;;3.53;1.35;;;;;;;9.89;58.02;97488.88;5115397;27;20043;-68
2022/10/21 05:35:10;;;;;;;0.80;0.80;;;;;;;10.83;55.10;97490.34;5115497;28;20408;-65
2022/10/21 05:37:38;;;;;;;2.53;1.58;;;;;;;11.54;52.03;97481.59;5115321;28;20040;-61
2022/10/21 05:40:08;;;;;;;3.17;1.55;;;;;;;12.33;50.46;97498.66;5115190;28;20416;-65
2022/10/21 05:42:36;;;;;;;1.92;1.05;;;;;;;13.26;48.69;97500.13;5115202;28;20505;-66
2022/10/21 05:45:03;;;;;;;2.58;0.95;;;;;;;14.12;47.22;97500.66;5115292;28;20047;-62
2022/10/21 05:47:31;;;;;;;2.83;0.90;;;;;;;15.11;44.69;97505.69;5115101;28;20040;-63
2022/10/21 05:49:58;;;;;;;1.60;1.00;;;;;;;16.01;42.88;97502.81;5115289;28;20055;-63
2022/10/21 05:52:25;;;;;;;2.20;1.02;;;;;;;16.60;41.84;97505.41;5115078;28;20058;-64
2022/10/21 05:54:53;;;;;;;2.05;1.00;;;;;;;17.42;40.15;97508.53;5114982;28;20039;-67
2022/10/21 05:57:22;;;;;;;1.73;1.20;;;;;;;18.23;38.51;97503.53;5115234;28;20129;-64
2022/10/21 05:59:50;;;;;;;0.90;0.85;;;;;;;18.97;37.21;97510.16;5115068;28;20051;-68
2022/10/21 06:02:17;;;;;;;1.33;1.00;;;;;;;19.67;35.78;97509.66;5114688;28;20044;-64
2022/10/21 06:04:45;;;;;;;3.08;0.85;;;;;;;20.17;35.03;97509.34;5114685;28;20497;-64
2022/10/21 06:07:14;;;;;;;1.33;1.05;;;;;;;20.70;33.78;97516.69;5114826;28;20046;-65
2022/10/21 06:09:41;;;;;;;1.00;0.90;;;;;;;21.38;32.80;97512.38;5114631;28;20090;-62
2022/10/21 06:12:09;;;;;;;1.65;0.80;;;;;;;22.08;31.35;97513.88;5114730;28;20077;-67
2022/10/21 06:14:38;;;;;;;6.82;1.00;;;;;;;22.76;30.81;97522.53;5114632;28;20599;-66
2022/10/21 06:17:05;;;;;;;1.00;0.75;;;;;;;23.17;30.38;97521.31;5114832;28;20477;-61
2022/10/21 06:19:32;;;;;;;0.80;0.80;;;;;;;23.63;29.46;97518.81;5114341;28;20051;-66
2022/10/21 06:21:59;;;;;;;1.08;0.73;;;;;;;24.04;29.07;97523.75;5114499;28;20504;-67
2022/10/21 06:24:26;;;;;;;2.38;1.10;;;;;;;24.53;28.54;97516.38;5114530;28;20108;-62
2022/10/21 06:26:54;;;;;;;2.15;0.90;;;;;;;24.65;28.41;97521.75;5114516;28;20048;-69
2022/10/21 06:29:22;;;;;;;1.75;1.02;;;;;;;25.08;28.03;97523.59;5114360;28;20043;-64
2022/10/21 06:31:51;;;;;;;0.93;0.93;;;;;;;25.54;27.30;97522.56;5113505;28;20058;-65
2022/10/21 06:34:18;;;;;;;1.95;1.05;;;;;;;25.82;26.68;97528.28;5114246;28;20138;-64
2022/10/21 06:36:46;;;;;;;1.63;1.10;;;;;;;25.92;26.43;97521.19;5114156;28;20468;-67
2022/10/21 06:39:13;;;;;;;2.67;1.05;;;;;;;26.28;26.25;97519.94;5114229;28;20394;-66
2022/10/21 06:41:40;;;;;;;2.03;1.00;;;;;;;26.58;25.97;97529.81;5114015;28;20054;-65
2022/10/21 06:44:08;;;;;;;1.60;1.15;;;;;;;26.75;25.55;97528.34;5114199;28;20059;-65
2022/10/21 06:46:35;;;;;;;1.02;0.90;;;;;;;26.84;25.58;97523.97;5113981;28;20126;-63
2022/10/21 06:49:04;;;;;;;1.50;1.20;;;;;;;27.30;25.14;97523.50;5114080;28;20046;-62
2022/10/21 06:51:32;;;;;;;1.10;1.00;;;;;;;27.74;24.12;97515.03;5113921;28;20086;-64
2022/10/21 06:53:59;;;;;;;1.52;0.80;;;;;;;28.13;24.16;97521.28;5114037;28;20050;-62
2022/10/21 06:56:28;;;;;;;1.45;1.15;;;;;;;28.22;23.77;97522.25;5113810;28;20043;-66
2022/10/21 06:58:58;;;;;;;1.23;0.93;;;;;;;28.42;23.57;97528.44;5114082;28;20055;-66
2022/10/21 07:01:28;;;;;;;3.42;1.10;;;;;;;28.57;23.58;97525.25;5113753;28;20054;-66
2022/10/21 07:03:56;;;;;;;0.80;0.80;;;;;;;28.68;23.41;97526.91;5113801;28;20056;-63
2022/10/21 07:06:25;;;;;;;1.90;0.95;;;;;;;29.14;22.36;97533.16;5113696;28;20130;-60
2022/10/21 07:08:53;;;;;;;1.92;0.90;;;;;;;29.58;21.90;97536.09;5113707;28;20047;-68
2022/10/21 07:11:21;;;;;;;1.95;1.20;;;;;;;29.84;21.22;97528.06;5114011;28;20122;-65
2022/10/21 07:13:48;;;;;;;2.85;1.10;;;;;;;29.86;21.44;97526.03;5113909;28;20454;-69
2022/10/21 07:16:18;;;;;;;5.70;1.10;;;;;;;29.96;21.76;97522.41;5113570;28;20050;-67
2022/10/21 07:18:45;;;;;;;3.80;1.23;;;;;;;29.86;21.63;97526.03;5113669;28;20054;-66
2022/10/21 07:21:16;;;;;;;2.00;1.00;;;;;;;29.31;22.19;97527.09;5113375;28;20044;-70
2022/10/21 07:23:47;;;;;;;1.92;1.05;;;;;;;28.67;23.33;97523.38;5113502;28;20054;-63
2022/10/21 07:26:14;;;;;;;3.13;0.70;;;;;;;28.34;23.24;97526.50;5113508;28;20055;-65
2022/10/21 07:28:45;;;;;;;2.85;0.85;;;;;;;28.46;22.86;97515.53;5113498;28;20054;-64
2022/10/21 07:31:14;;;;;;;2.55;0.95;;;;;;;28.53;22.54;97507.72;5113432;28;20043;-63
2022/10/21 07:33:41;;;;;;;2.33;0.90;;;;;;;28.49;22.66;97516.09;5113678;28;20528;-63
2022/10/21 07:36:12;;;;;;;1.13;0.60;;;;;;;28.17;23.38;97508.41;5113416;28;20497;-67
2022/10/21 07:38:42;;;;;;;2.20;1.13;;;;;;;27.41;24.25;97521.66;5113748;28;20123;-66
2022/10/21 07:41:14;;;;;;;1.85;0.98;;;;;;;27.06;24.52;97522.06;5113311;28;20050;-66
2022/10/21 07:43:42;;;;;;;1.55;0.73;;;;;;;26.73;24.73;97516.88;5115932;28;20047;-67
2022/10/21 07:46:09;;;;;;;0.65;0.60;;;;;;;26.22;25.39;97515.97;5117525;28;20112;-64
2022/10/21 07:48:36;;;;;;;0.73;0.73;;;;;;;25.67;26.26;97525.94;5117573;28;20051;-69
2022/10/21 07:51:05;;;;;;;1.00;0.90;;;;;;;25.33;26.98;97526.06;5117433;28;20079;-64
2022/10/21 07:53:33;;;;;;;1.40;1.15;;;;;;;24.61;26.73;97513.09;5117284;28;20101;-68
2022/10/21 07:56:05;;;;;;;1.02;0.90;;;;;;;23.54;29.20;97516.88;5117610;28;20058;-65
2022/10/21 07:58:35;;;;;;;1.83;0.90;;;;;;;22.51;30.55;97517.13;5117155;28;20043;-64
2022/10/21 08:01:04;;;;;;;2.13;1.13;;;;;;;22.17;31.87;97515.03;5117240;28;20047;-63
2022/10/21 08:03:32;;;;;;;1.35;1.05;;;;;;;22.00;31.94;97515.38;5117161;28;20544;-63
2022/10/21 08:05:59;;;;;;;1.10;0.90;;;;;;;21.32;32.50;97516.31;5117096;28;20051;-65
2022/10/21 08:08:27;;;;;;;1.10;0.90;;;;;;;21.12;33.15;97518.47;5117121;28;20044;-66
2022/10/21 08:10:55;;;;;;;1.35;1.00;;;;;;;20.68;34.03;97509.78;5117085;28;20108;-61
2022/10/21 08:13:23;;;;;;;1.13;0.90;;;;;;;20.23;33.54;97505.47;5116943;28;20059;-67
2022/10/21 08:15:53;;;;;;;1.10;1.00;;;;;;;19.66;35.00;97501.78;5117007;28;20043;-65
2022/10/21 08:18:21;;;;;;;3.95;1.20;;;;;;;19.36;36.10;97502.66;5116992;28;20481;-63
2022/10/21 08:20:49;;;;;;;6.65;1.40;;;;;;;19.15;36.93;97505.63;5116655;28;20513;-63
2022/10/21 08:23:18;;;;;;;1.98;1.23;;;;;;;19.29;37.70;97503.00;5116889;28;20051;-62
2022/10/21 08:25:49;;;;;;;5.47;2.58;;;;;;;19.40;37.06;97502.38;5116853;28;20040;-63
2022/10/21 08:28:17;;;;;;;1.75;1.45;;;;;;;19.47;37.39;97512.66;5116708;27;20059;-65
2022/10/21 08:30:45;;;;;;;3.53;1.58;;;;;;;19.37;37.67;97507.88;5116716;28;20044;-62
2022/10/21 08:33:14;;;;;;;3.58;1.75;;;;;;;19.24;38.53;97501.56;5116942;28;20481;-67
2022/10/21 08:35:43;;;;;;;4.18;1.77;;;;;;;19.22;37.43;97500.81;5116676;28;20048;-63
2022/10/21 08:38:11;;;;;;;5.07;1.75;;;;;;;19.24;38.42;97497.13;5116546;27;20061;-66
2022/10/21 08:40:41;;;;;;;3.20;1.85;;;;;;;19.30;38.31;97495.91;5116405;28;20047;-63
2022/10/21 08:43:10;;;;;;;4.88;2.35;;;;;;;19.39;37.76;97497.19;5116527;28;20044;-62
2022/10/21 08:45:44;;;;;;;2.78;1.98;;;;;;;19.34;37.33;97494.78;5116376;28;20145;-60
2022/10/21 08:48:16;;;;;;;5.32;1.92;;;;;;;19.24;37.96;97494.47;5116368;28;20050;-61
2022/10/21 08:50:47;;;;;;;2.75;1.88;;;;;;;19.14;38.48;97494.16;5116326;27;20043;-66
2022/10/21 08:53:20;;;;;;;4.47;2.03;;;;;;;19.24;38.11;97494.47;5116482;28;20044;-61
2022/10/21 08:55:49;;;;;;;2.25;1.73;;;;;;;19.26;37.93;97486.44;5115509;28;20051;-66
2022/10/21 08:58:20;;;;;;;2.90;2.15;;;;;;;19.24;38.18;97496.28;5116170;28;20071;-63
2022/10/21 09:00:51;;;;;;;4.65;2.00;;;;;;;19.27;37.96;97491.63;5116000;28;20051;-63
2022/10/21 09:03:30;;;;;;;4.35;1.70;;;;;;;19.38;38.29;97493.66;5115906;28;20051;-62
2022/10/21 09:06:20;;;;;;;4.32;1.83;;;;;;;18.97;38.09;97491.59;5116172;28;20043;-65
2022/10/21 09:08:59;;;;;;;1.98;1.60;;;;;;;18.66;38.40;97491.53;5115893;28;20481;-66
2022/10/21 09:11:43;;;;;;;3.00;1.77;;;;;;;18.43;39.50;97498.97;5115956;28;20047;-66
2022/10/21 09:14:42;;;;;;;6.32;1.65;;;;;;;18.12;39.80;97498.81;5115740;28;20132;-62
2022/10/21 09:17:24;;;;;;;2.08;1.58;;;;;;;17.93;40.87;97497.13;5115700;28;20051;-64
2022/10/21 09:20:02;;;;;;;3.67;2.00;;;;;;;17.65;39.76;97487.13;5115354;28;20047;-64
2022/10/21 09:22:49;;;;;;;7.55;2.00;;;;;;;17.54;40.46;97490.31;5115842;28;20055;-62
2022/10/21 09:25:25;;;;;;;2.25;1.65;;;;;;;17.40;41.11;97486.59;5115694;28;20086;-62
2022/10/21 09:27:53;;;;;;;2.72;2.13;;;;;;;17.15;41.08;97485.19;5115516;28;20491;-65
2022/10/21 09:30:22;;;;;;;3.80;1.92;;;;;;;16.96;42.02;97487.00;5115502;28;20051;-59
2022/10/21 09:32:52;;;;;;;3.92;2.10;;;;;;;16.95;43.83;97475.59;5115492;28;20044;-61
2022/10/21 09:35:29;;;;;;;5.97;2.03;;;;;;;17.24;41.90;97478.59;5115425;28;20083;-62
2022/10/21 09:38:02;;;;;;;4.68;2.00;;;;;;;17.52;42.10;97469.25;5115264;28;20043;-63
2022/10/21 09:40:32;;;;;;;3.58;2.00;;;;;;;17.73;41.24;97469.06;5115321;28;20497;-66
2022/10/21 09:43:02;;;;;;;8.40;2.10;;;;;;;17.85;40.78;97464.06;5115165;28;20094;-69
2022/10/21 09:45:34;;;;;;;5.65;2.00;;;;;;;17.84;39.98;97460.56;5115231;28;20052;-61
2022/10/21 09:48:04;;;;;;;1.92;1.65;;;;;;;17.92;39.62;97457.50;5115180;28;20044;-63
2022/10/21 09:50:34;;;;;;;2.05;1.77;;;;;;;18.09;40.07;97456.59;5115145;28;20039;-67
2022/10/21 09:53:09;;;;;;;2.70;1.65;;;;;;;18.33;38.50;97453.56;5115131;28;20048;-65
2022/10/21 09:55:39;;;;;;;2.08;1.80;;;;;;;18.06;39.35;97452.31;5114934;28;20048;-64
2022/10/21 09:58:07;;;;;;;3.85;2.17;;;;;;;17.77;38.95;97443.31;5115020;28;20444;-66
2022/10/21 10:00:47;;;;;;;2.33;1.92;;;;;;;17.75;39.80;97445.16;5114881;28;20047;-68
2022/10/21 10:03:29;;;;;;;;;;;;;;;17.79;40.54;97442.28;5115183;28;20062;-59
2022/10/21 10:05:58;;;;;;;2.97;1.80;;;;;;;17.86;40.00;97447.25;5114796;28;19920;-66
2022/10/21 10:08:35;;;;;;;2.72;1.88;;;;;;;17.74;39.35;97446.97;5114703;28;20048;-65
2022/10/21 10:11:20;;;;;;;4.75;2.22;;;;;;;17.71;39.59;97438.34;5114635;28;20097;-64
2022/10/21 10:13:49;;;;;;;2.10;1.77;;;;;;;17.68;39.97;97436.72;5114568;28;20481;-66
2022/10/21 10:16:23;;;;;;;2.28;1.73;;;;;;;17.51;40.50;97429.66;5114629;28;20123;-62
2022/10/21 10:18:53;;;;;;;6.63;2.25;;;;;;;17.40;40.22;97433.72;5114722;28;20051;-63
2022/10/21 10:21:25;;;;;;;3.17;2.10;;;;;;;17.47;40.39;97430.75;5114410;28;20048;-62
2022/10/21 10:23:55;;;;;;;2.00;1.80;;;;;;;17.56;39.50;97422.34;5114505;28;20070;-68
2022/10/21 10:26:26;;;;;;;1.75;1.65;;;;;;;17.62;40.88;97421.16;5114443;28;20043;-70
2022/10/21 10:28:56;;;;;;;3.60;1.60;;;;;;;17.63;39.20;97410.50;5114441;27;20478;-62
2022/10/21 10:31:30;;;;;;;5.32;1.85;;;;;;;17.72;40.15;97408.28;5114334;28;20040;-61
2022/10/21 10:34:02;;;;;;;1.95;1.75;;;;;;;17.83;39.69;97403.28;5114231;28;20043;-69
2022/10/21 10:36:34;;;;;;;7.03;2.30;;;;;;;17.93;39.75;97407.16;5114313;28;20051;-67
2022/10/21 10:39:06;;;;;;;2.90;2.00;;;;;;;17.94;40.00;97402.69;5114122;28;20126;-62
2022/10/21 10:41:38;;;;;;;2.42;1.70;;;;;;;18.08;39.20;97399.31;5114096;28;20047;-62
2022/10/21 10:44:12;;;;;;;6.93;1.95;;;;;;;17.97;38.79;97399.88;5113972;28;20047;-66
2022/10/21 10:46:40;;;;;;;5.20;1.92;;;;;;;17.76;38.86;97393.97;5114124;28;20048;-64
2022/10/21 10:49:21;;;;;;;7.50;2.78;;;;;;;17.63;40.58;97394.63;5114047;28;20047;-63
2022/10/21 10:52:06;;;;;;;4.03;1.73;;;;;;;17.60;39.99;97388.63;5114048;28;20498;-65
2022/10/21 10:54:35;;;;;;;2.45;1.80;;;;;;;17.67;40.59;97390.03;5114024;28;20096;-63
2022/10/21 10:57:06;;;;;;;1.60;1.45;;;;;;;17.79;40.63;97384.06;5113786;28;20093;-63
2022/10/21 10:59:40;;;;;;;2.88;1.70;;;;;;;17.89;39.96;97376.50;5113883;28;20489;-63
2022/10/21 11:02:26;;;;;;;2.47;1.70;;;;;;;17.85;39.56;97379.41;5113694;28;20040;-63
2022/10/21 11:05:18;;;;;;;4.53;1.50;;;;;;;17.66;38.84;97378.59;5113851;28;20131;-65
2022/10/21 11:07:50;;;;;;;2.80;1.63;;;;;;;17.63;39.63;97372.59;5109857;28;20039;-65
2022/10/21 11:10:34;;;;;;;2.33;1.52;;;;;;;17.76;40.17;97378.09;5113813;28;20511;-69
2022/10/21 11:13:04;;;;;;;2.20;1.65;;;;;;;17.69;39.41;97366.97;5113618;28;20134;-66
2022/10/21 11:15:46;;;;;;;2.63;2.05;;;;;;;17.52;39.65;97366.09;5113779;28;20082;-66
2022/10/21 11:18:19;;;;;;;1.98;1.70;;;;;;;17.59;39.79;97379.00;5113188;28;20040;-65
2022/10/21 11:20:59;;;;;;;2.30;1.75;;;;;;;17.59;40.57;97366.63;5113506;28;20044;-63
2022/10/21 11:24:02;;;;;;;1.33;1.23;;;;;;;17.75;40.21;97357.84;5113556;28;20108;-65
2022/10/21 11:26:37;;;;;;;2.92;1.80;;;;;;;17.89;39.31;97359.75;5113519;28;20051;-66
2022/10/21 11:29:13;;;;;;;2.33;1.25;;;;;;;17.99;39.53;97349.50;5113625;28;20083;-64
2022/10/21 11:31:49;;;;;;;3.28;1.80;;;;;;;18.09;38.64;97355.16;5113428;28;20101;-65
2022/10/21 11:34:22;;;;;;;2.13;1.60;;;;;;;18.08;38.94;97348.13;5113785;28;20471;-63
2022/10/21 11:37:00;;;;;;;2.05;1.67;;;;;;;18.05;39.14;97352.69;5113381;28;20043;-61
2022/10/21 11:39:44;;;;;;;2.15;1.60;;;;;;;17.99;38.79;97345.06;5113323;28;20139;-66
2022/10/21 11:42:23;;;;;;;4.43;1.80;;;;;;;17.97;38.16;97344.28;5113296;28;20052;-66
2022/10/21 11:45:03;;;;;;;2.38;1.50;;;;;;;17.92;37.91;97338.41;5113422;28;20435;-66
2022/10/21 11:47:39;;;;;;;6.97;1.70;;;;;;;17.86;38.29;97339.63;5113335;28;20052;-68
2022/10/21 11:50:17;;;;;;;2.38;1.50;;;;;;;17.86;38.92;97339.63;5113114;28;20047;-60
2022/10/21 11:52:53;;;;;;;3.30;1.90;;;;;;;17.81;39.23;97331.06;5113303;28;20550;-66
2022/10/21 11:55:38;;;;;;;2.05;1.70;;;;;;;17.92;38.93;97336.63;5113244;28;20496;-65